sensor_id;sensor_type;location;lat;lon;timestamp;temperature;humidity
20866;DHT22;10593;48.398;10.698;2022-12-18T00:01:13;-1.20;53.90
20866;DHT22;10593;48.398;10.698;2022-12-18T00:03:40;-1.30;53.80
20866;DHT22;10593;48.398;10.698;2022-12-18T00:06:06;-1.30;53.70
20866;DHT22;10593;48.398;10.698;2022-12-18T00:08:32;-1.30;53.80
20866;DHT22;10593;48.398;10.698;2022-12-18T00:11:05;-1.20;53.90
20866;DHT22;10593;48.398;10.698;2022-12-18T00:13:32;-1.20;53.90
20866;DHT22;10593;48.398;10.698;2022-12-18T00:16:05;-1.20;53.80
20866;DHT22;10593;48.398;10.698;2022-12-18T00:18:34;-1.20;53.90
20866;DHT22;10593;48.398;10.698;2022-12-18T00:21:01;-1.20;53.90
20866;DHT22;10593;48.398;10.698;2022-12-18T00:23:29;-1.20;53.90
20866;DHT22;10593;48.398;10.698;2022-12-18T00:25:59;-1.20;53.90
20866;DHT22;10593;48.398;10.698;2022-12-18T00:28:25;-1.20;53.90
20866;DHT22;10593;48.398;10.698;2022-12-18T00:30:50;-1.20;53.90
20866;DHT22;10593;48.398;10.698;2022-12-18T00:33:25;-1.20;53.90
20866;DHT22;10593;48.398;10.698;2022-12-18T00:35:50;-1.20;54.00
20866;DHT22;10593;48.398;10.698;2022-12-18T00:38:16;-1.10;54.00
20866;DHT22;10593;48.398;10.698;2022-12-18T00:40:42;-1.10;54.00
20866;DHT22;10593;48.398;10.698;2022-12-18T00:43:07;-1.10;54.00
20866;DHT22;10593;48.398;10.698;2022-12-18T00:45:34;-1.10;54.00
20866;DHT22;10593;48.398;10.698;2022-12-18T00:48:00;-1.10;53.90
20866;DHT22;10593;48.398;10.698;2022-12-18T00:50:25;-1.10;53.90
20866;DHT22;10593;48.398;10.698;2022-12-18T00:52:51;-1.10;53.90
20866;DHT22;10593;48.398;10.698;2022-12-18T00:55:18;-1.10;53.90
20866;DHT22;10593;48.398;10.698;2022-12-18T00:57:43;-1.10;53.90
20866;DHT22;10593;48.398;10.698;2022-12-18T01:00:14;-1.10;53.80
20866;DHT22;10593;48.398;10.698;2022-12-18T01:02:40;-1.10;53.70
20866;DHT22;10593;48.398;10.698;2022-12-18T01:05:08;-1.10;53.60
20866;DHT22;10593;48.398;10.698;2022-12-18T01:07:35;-1.10;53.70
20866;DHT22;10593;48.398;10.698;2022-12-18T01:10:01;-1.10;53.70
20866;DHT22;10593;48.398;10.698;2022-12-18T01:12:26;-1.10;53.60
20866;DHT22;10593;48.398;10.698;2022-12-18T01:14:52;-1.10;53.70
20866;DHT22;10593;48.398;10.698;2022-12-18T01:17:18;-1.10;53.70
20866;DHT22;10593;48.398;10.698;2022-12-18T01:19:43;-1.10;53.70
20866;DHT22;10593;48.398;10.698;2022-12-18T01:22:09;-1.10;53.90
20866;DHT22;10593;48.398;10.698;2022-12-18T01:24:35;-1.10;54.00
20866;DHT22;10593;48.398;10.698;2022-12-18T01:27:00;-1.10;54.00
20866;DHT22;10593;48.398;10.698;2022-12-18T01:29:26;-1.10;54.10
20866;DHT22;10593;48.398;10.698;2022-12-18T01:31:55;-1.10;54.10
20866;DHT22;10593;48.398;10.698;2022-12-18T01:34:22;-1.10;54.20
20866;DHT22;10593;48.398;10.698;2022-12-18T01:36:48;-1.10;54.20
20866;DHT22;10593;48.398;10.698;2022-12-18T01:39:14;-1.10;54.10
20866;DHT22;10593;48.398;10.698;2022-12-18T01:41:41;-1.10;54.10
20866;DHT22;10593;48.398;10.698;2022-12-18T01:45:08;-1.10;54.10
20866;DHT22;10593;48.398;10.698;2022-12-18T01:47:44;-1.10;54.10
20866;DHT22;10593;48.398;10.698;2022-12-18T01:52:47;-1.10;54.20
20866;DHT22;10593;48.398;10.698;2022-12-18T01:55:27;-1.10;54.30
20866;DHT22;10593;48.398;10.698;2022-12-18T01:57:58;-1.10;54.30
20866;DHT22;10593;48.398;10.698;2022-12-18T02:00:26;-1.00;54.40
20866;DHT22;10593;48.398;10.698;2022-12-18T02:02:53;-1.00;54.40
20866;DHT22;10593;48.398;10.698;2022-12-18T02:08:26;-1.00;54.50
20866;DHT22;10593;48.398;10.698;2022-12-18T02:14:05;-1.00;54.40
20866;DHT22;10593;48.398;10.698;2022-12-18T02:28:13;-1.00;54.50
20866;DHT22;10593;48.398;10.698;2022-12-18T02:30:42;-1.00;54.40
20866;DHT22;10593;48.398;10.698;2022-12-18T02:33:11;-1.00;54.50
20866;DHT22;10593;48.398;10.698;2022-12-18T02:35:40;-1.00;54.50
20866;DHT22;10593;48.398;10.698;2022-12-18T02:38:09;-1.00;54.60
20866;DHT22;10593;48.398;10.698;2022-12-18T02:40:35;-1.00;54.50
20866;DHT22;10593;48.398;10.698;2022-12-18T02:43:14;-1.00;54.50
20866;DHT22;10593;48.398;10.698;2022-12-18T02:45:50;-1.00;54.60
20866;DHT22;10593;48.398;10.698;2022-12-18T02:48:22;-1.00;54.50
20866;DHT22;10593;48.398;10.698;2022-12-18T02:51:03;-1.00;54.50
20866;DHT22;10593;48.398;10.698;2022-12-18T02:53:48;-1.00;54.50
20866;DHT22;10593;48.398;10.698;2022-12-18T02:56:24;-1.00;54.50
20866;DHT22;10593;48.398;10.698;2022-12-18T02:59:13;-1.00;54.40
20866;DHT22;10593;48.398;10.698;2022-12-18T03:02:11;-1.00;54.40
20866;DHT22;10593;48.398;10.698;2022-12-18T03:05:18;-1.00;54.40
20866;DHT22;10593;48.398;10.698;2022-12-18T03:08:12;-1.00;54.40
20866;DHT22;10593;48.398;10.698;2022-12-18T03:10:54;-1.00;54.40
20866;DHT22;10593;48.398;10.698;2022-12-18T03:13:30;-1.00;54.30
20866;DHT22;10593;48.398;10.698;2022-12-18T03:16:00;-1.00;54.30
20866;DHT22;10593;48.398;10.698;2022-12-18T03:21:11;-1.00;54.30
20866;DHT22;10593;48.398;10.698;2022-12-18T03:23:44;-1.00;54.40
20866;DHT22;10593;48.398;10.698;2022-12-18T03:26:18;-1.00;54.40
20866;DHT22;10593;48.398;10.698;2022-12-18T03:28:52;-1.00;54.40
20866;DHT22;10593;48.398;10.698;2022-12-18T03:31:23;-1.00;54.40
20866;DHT22;10593;48.398;10.698;2022-12-18T03:33:54;-1.00;54.40
20866;DHT22;10593;48.398;10.698;2022-12-18T03:36:31;-1.00;54.40
20866;DHT22;10593;48.398;10.698;2022-12-18T03:38:57;-1.10;54.20
20866;DHT22;10593;48.398;10.698;2022-12-18T03:41:34;-1.10;54.20
20866;DHT22;10593;48.398;10.698;2022-12-18T03:44:27;-1.10;54.20
20866;DHT22;10593;48.398;10.698;2022-12-18T03:47:22;-1.10;54.30
20866;DHT22;10593;48.398;10.698;2022-12-18T03:50:35;-1.10;54.30
20866;DHT22;10593;48.398;10.698;2022-12-18T03:55:51;-1.10;54.20
20866;DHT22;10593;48.398;10.698;2022-12-18T03:58:20;-1.10;54.80
20866;DHT22;10593;48.398;10.698;2022-12-18T04:00:52;-1.10;54.20
20866;DHT22;10593;48.398;10.698;2022-12-18T04:03:21;-1.10;54.20
20866;DHT22;10593;48.398;10.698;2022-12-18T04:05:50;-1.10;54.20
20866;DHT22;10593;48.398;10.698;2022-12-18T04:08:18;-1.10;54.20
20866;DHT22;10593;48.398;10.698;2022-12-18T04:10:45;-1.10;54.20
20866;DHT22;10593;48.398;10.698;2022-12-18T04:13:11;-1.10;54.10
20866;DHT22;10593;48.398;10.698;2022-12-18T04:15:37;-1.20;54.10
20866;DHT22;10593;48.398;10.698;2022-12-18T04:18:03;-1.20;54.10
20866;DHT22;10593;48.398;10.698;2022-12-18T04:20:29;-1.20;54.10
20866;DHT22;10593;48.398;10.698;2022-12-18T04:22:55;-1.20;54.10
20866;DHT22;10593;48.398;10.698;2022-12-18T04:25:21;-1.20;54.10
20866;DHT22;10593;48.398;10.698;2022-12-18T04:27:46;-1.20;54.10
20866;DHT22;10593;48.398;10.698;2022-12-18T04:30:12;-1.20;54.00
20866;DHT22;10593;48.398;10.698;2022-12-18T04:32:38;-1.20;54.10
20866;DHT22;10593;48.398;10.698;2022-12-18T04:35:04;-1.30;54.00
20866;DHT22;10593;48.398;10.698;2022-12-18T04:37:34;-1.30;54.00
20866;DHT22;10593;48.398;10.698;2022-12-18T04:39:59;-1.30;54.20
20866;DHT22;10593;48.398;10.698;2022-12-18T04:42:25;-1.30;54.20
20866;DHT22;10593;48.398;10.698;2022-12-18T04:44:51;-1.40;54.10
20866;DHT22;10593;48.398;10.698;2022-12-18T04:47:16;-1.40;54.20
20866;DHT22;10593;48.398;10.698;2022-12-18T04:49:42;-1.40;54.30
20866;DHT22;10593;48.398;10.698;2022-12-18T04:52:07;-1.40;54.30
20866;DHT22;10593;48.398;10.698;2022-12-18T04:54:33;-1.40;54.40
20866;DHT22;10593;48.398;10.698;2022-12-18T04:56:59;-1.40;54.50
20866;DHT22;10593;48.398;10.698;2022-12-18T04:59:24;-1.40;54.50
20866;DHT22;10593;48.398;10.698;2022-12-18T05:01:50;-1.40;54.50
20866;DHT22;10593;48.398;10.698;2022-12-18T05:04:16;-1.40;54.50
20866;DHT22;10593;48.398;10.698;2022-12-18T05:06:41;-1.40;54.40
20866;DHT22;10593;48.398;10.698;2022-12-18T05:09:07;-1.40;54.40
20866;DHT22;10593;48.398;10.698;2022-12-18T05:11:33;-1.40;54.40
20866;DHT22;10593;48.398;10.698;2022-12-18T05:13:58;-1.40;54.40
20866;DHT22;10593;48.398;10.698;2022-12-18T05:16:24;-1.40;54.40
20866;DHT22;10593;48.398;10.698;2022-12-18T05:18:50;-1.40;54.40
20866;DHT22;10593;48.398;10.698;2022-12-18T05:21:15;-1.40;54.40
20866;DHT22;10593;48.398;10.698;2022-12-18T05:23:41;-1.40;54.50
20866;DHT22;10593;48.398;10.698;2022-12-18T05:26:07;-1.40;54.60
20866;DHT22;10593;48.398;10.698;2022-12-18T05:28:34;-1.40;54.60
20866;DHT22;10593;48.398;10.698;2022-12-18T05:31:02;-1.40;54.60
20866;DHT22;10593;48.398;10.698;2022-12-18T05:33:30;-1.40;54.60
20866;DHT22;10593;48.398;10.698;2022-12-18T05:35:59;-1.40;54.60
20866;DHT22;10593;48.398;10.698;2022-12-18T05:38:27;-1.40;54.50
20866;DHT22;10593;48.398;10.698;2022-12-18T05:40:54;-1.40;54.50
20866;DHT22;10593;48.398;10.698;2022-12-18T05:43:24;-1.40;54.50
20866;DHT22;10593;48.398;10.698;2022-12-18T05:45:52;-1.40;54.50
20866;DHT22;10593;48.398;10.698;2022-12-18T05:48:18;-1.40;54.60
20866;DHT22;10593;48.398;10.698;2022-12-18T05:50:46;-1.40;54.60
20866;DHT22;10593;48.398;10.698;2022-12-18T05:53:18;-1.40;54.70
20866;DHT22;10593;48.398;10.698;2022-12-18T05:55:45;-1.40;54.70
20866;DHT22;10593;48.398;10.698;2022-12-18T05:58:12;-1.40;54.60
20866;DHT22;10593;48.398;10.698;2022-12-18T06:00:41;-1.40;54.60
20866;DHT22;10593;48.398;10.698;2022-12-18T06:03:10;-1.40;54.60
20866;DHT22;10593;48.398;10.698;2022-12-18T06:05:38;-1.40;54.50
20866;DHT22;10593;48.398;10.698;2022-12-18T06:08:06;-1.40;54.50
20866;DHT22;10593;48.398;10.698;2022-12-18T06:10:33;-1.40;54.50
20866;DHT22;10593;48.398;10.698;2022-12-18T06:12:58;-1.40;54.40
20866;DHT22;10593;48.398;10.698;2022-12-18T06:15:24;-1.40;54.50
20866;DHT22;10593;48.398;10.698;2022-12-18T06:17:50;-1.40;54.60
20866;DHT22;10593;48.398;10.698;2022-12-18T06:20:16;-1.40;54.60
20866;DHT22;10593;48.398;10.698;2022-12-18T06:22:41;-1.40;54.60
20866;DHT22;10593;48.398;10.698;2022-12-18T06:25:07;-1.40;54.60
20866;DHT22;10593;48.398;10.698;2022-12-18T06:27:33;-1.50;54.60
20866;DHT22;10593;48.398;10.698;2022-12-18T06:30:00;-1.40;54.80
20866;DHT22;10593;48.398;10.698;2022-12-18T06:32:26;-1.40;54.80
20866;DHT22;10593;48.398;10.698;2022-12-18T06:34:52;-1.50;54.80
20866;DHT22;10593;48.398;10.698;2022-12-18T06:37:19;-1.50;54.80
20866;DHT22;10593;48.398;10.698;2022-12-18T06:39:44;-1.40;54.80
20866;DHT22;10593;48.398;10.698;2022-12-18T06:42:10;-1.40;54.80
20866;DHT22;10593;48.398;10.698;2022-12-18T06:44:36;-1.40;54.90
20866;DHT22;10593;48.398;10.698;2022-12-18T06:47:01;-1.40;55.00
20866;DHT22;10593;48.398;10.698;2022-12-18T06:49:27;-1.40;54.90
20866;DHT22;10593;48.398;10.698;2022-12-18T06:51:53;-1.40;54.90
20866;DHT22;10593;48.398;10.698;2022-12-18T06:54:19;-1.40;54.80
20866;DHT22;10593;48.398;10.698;2022-12-18T06:56:47;-1.40;54.80
20866;DHT22;10593;48.398;10.698;2022-12-18T06:59:13;-1.40;54.80
20866;DHT22;10593;48.398;10.698;2022-12-18T07:01:40;-1.40;54.80
20866;DHT22;10593;48.398;10.698;2022-12-18T07:04:07;-1.40;54.80
20866;DHT22;10593;48.398;10.698;2022-12-18T07:06:32;-1.40;54.70
20866;DHT22;10593;48.398;10.698;2022-12-18T07:08:58;-1.40;54.60
20866;DHT22;10593;48.398;10.698;2022-12-18T07:11:24;-1.40;54.60
20866;DHT22;10593;48.398;10.698;2022-12-18T07:13:50;-1.40;54.60
20866;DHT22;10593;48.398;10.698;2022-12-18T07:16:19;-1.40;54.60
20866;DHT22;10593;48.398;10.698;2022-12-18T07:18:45;-1.40;54.70
20866;DHT22;10593;48.398;10.698;2022-12-18T07:21:16;-1.50;54.70
20866;DHT22;10593;48.398;10.698;2022-12-18T07:23:43;-1.50;54.60
20866;DHT22;10593;48.398;10.698;2022-12-18T07:26:12;-1.50;54.60
20866;DHT22;10593;48.398;10.698;2022-12-18T07:28:40;-1.50;54.60
20866;DHT22;10593;48.398;10.698;2022-12-18T07:31:09;-1.50;55.10
20866;DHT22;10593;48.398;10.698;2022-12-18T07:33:36;-1.50;54.50
20866;DHT22;10593;48.398;10.698;2022-12-18T07:36:03;-1.60;54.60
20866;DHT22;10593;48.398;10.698;2022-12-18T07:38:31;-1.60;54.60
20866;DHT22;10593;48.398;10.698;2022-12-18T07:41:07;-1.60;54.70
20866;DHT22;10593;48.398;10.698;2022-12-18T07:43:37;-1.60;54.90
20866;DHT22;10593;48.398;10.698;2022-12-18T07:46:04;-1.60;55.00
20866;DHT22;10593;48.398;10.698;2022-12-18T07:48:31;-1.60;55.00
20866;DHT22;10593;48.398;10.698;2022-12-18T07:51:05;-1.60;55.00
20866;DHT22;10593;48.398;10.698;2022-12-18T07:53:32;-1.60;55.00
20866;DHT22;10593;48.398;10.698;2022-12-18T07:56:01;-1.60;55.00
20866;DHT22;10593;48.398;10.698;2022-12-18T07:58:29;-1.60;55.20
20866;DHT22;10593;48.398;10.698;2022-12-18T08:01:05;-1.60;55.10
20866;DHT22;10593;48.398;10.698;2022-12-18T08:03:33;-1.50;55.30
20866;DHT22;10593;48.398;10.698;2022-12-18T08:06:00;-1.50;55.10
20866;DHT22;10593;48.398;10.698;2022-12-18T08:08:27;-1.50;55.10
20866;DHT22;10593;48.398;10.698;2022-12-18T08:10:53;-1.50;55.10
20866;DHT22;10593;48.398;10.698;2022-12-18T08:13:19;-1.60;55.00
20866;DHT22;10593;48.398;10.698;2022-12-18T08:15:44;-1.50;55.10
20866;DHT22;10593;48.398;10.698;2022-12-18T08:18:10;-1.50;55.20
20866;DHT22;10593;48.398;10.698;2022-12-18T08:20:36;-1.50;55.20
20866;DHT22;10593;48.398;10.698;2022-12-18T08:23:01;-1.50;55.10
20866;DHT22;10593;48.398;10.698;2022-12-18T08:25:27;-1.50;55.20
20866;DHT22;10593;48.398;10.698;2022-12-18T08:27:53;-1.50;55.20
20866;DHT22;10593;48.398;10.698;2022-12-18T08:30:19;-1.50;55.10
20866;DHT22;10593;48.398;10.698;2022-12-18T08:32:45;-1.40;55.30
20866;DHT22;10593;48.398;10.698;2022-12-18T08:35:10;-1.40;55.30
20866;DHT22;10593;48.398;10.698;2022-12-18T08:37:37;-1.40;55.30
20866;DHT22;10593;48.398;10.698;2022-12-18T08:40:03;-1.40;55.20
20866;DHT22;10593;48.398;10.698;2022-12-18T08:42:29;-1.40;55.20
20866;DHT22;10593;48.398;10.698;2022-12-18T08:45:13;-1.40;55.10
20866;DHT22;10593;48.398;10.698;2022-12-18T08:47:39;-1.40;55.10
20866;DHT22;10593;48.398;10.698;2022-12-18T08:50:05;-1.40;55.10
20866;DHT22;10593;48.398;10.698;2022-12-18T08:52:32;-1.30;55.20
20866;DHT22;10593;48.398;10.698;2022-12-18T08:54:57;-1.40;55.10
20866;DHT22;10593;48.398;10.698;2022-12-18T08:57:23;-1.40;55.10
20866;DHT22;10593;48.398;10.698;2022-12-18T08:59:49;-1.30;55.20
20866;DHT22;10593;48.398;10.698;2022-12-18T09:02:14;-1.30;55.20
20866;DHT22;10593;48.398;10.698;2022-12-18T09:04:40;-1.30;55.20
20866;DHT22;10593;48.398;10.698;2022-12-18T09:07:06;-1.30;55.20
20866;DHT22;10593;48.398;10.698;2022-12-18T09:09:32;-1.30;55.30
20866;DHT22;10593;48.398;10.698;2022-12-18T09:11:58;-1.30;55.30
20866;DHT22;10593;48.398;10.698;2022-12-18T09:14:23;-1.30;55.30
20866;DHT22;10593;48.398;10.698;2022-12-18T09:16:49;-1.30;55.20
20866;DHT22;10593;48.398;10.698;2022-12-18T09:19:15;-1.30;55.20
20866;DHT22;10593;48.398;10.698;2022-12-18T09:21:40;-1.30;55.30
20866;DHT22;10593;48.398;10.698;2022-12-18T09:24:08;-1.30;55.40
20866;DHT22;10593;48.398;10.698;2022-12-18T09:26:37;-1.30;55.20
20866;DHT22;10593;48.398;10.698;2022-12-18T09:29:03;-1.30;55.20
20866;DHT22;10593;48.398;10.698;2022-12-18T09:31:29;-1.20;55.30
20866;DHT22;10593;48.398;10.698;2022-12-18T09:33:56;-1.30;55.20
20866;DHT22;10593;48.398;10.698;2022-12-18T09:36:22;-1.30;55.20
20866;DHT22;10593;48.398;10.698;2022-12-18T09:38:47;-1.30;55.30
20866;DHT22;10593;48.398;10.698;2022-12-18T09:44:24;-1.30;55.50
20866;DHT22;10593;48.398;10.698;2022-12-18T09:47:27;-1.30;55.50
20866;DHT22;10593;48.398;10.698;2022-12-18T09:50:02;-1.30;55.40
20866;DHT22;10593;48.398;10.698;2022-12-18T09:52:39;-1.20;55.40
20866;DHT22;10593;48.398;10.698;2022-12-18T09:55:42;-1.20;55.60
20866;DHT22;10593;48.398;10.698;2022-12-18T10:00:52;-1.20;55.60
20866;DHT22;10593;48.398;10.698;2022-12-18T10:03:18;-1.20;55.70
20866;DHT22;10593;48.398;10.698;2022-12-18T10:09:05;-1.20;55.60
20866;DHT22;10593;48.398;10.698;2022-12-18T10:18:18;-1.10;55.60
20866;DHT22;10593;48.398;10.698;2022-12-18T10:21:00;-1.10;55.60
20866;DHT22;10593;48.398;10.698;2022-12-18T10:23:33;-1.10;55.50
20866;DHT22;10593;48.398;10.698;2022-12-18T10:26:10;-1.10;55.40
20866;DHT22;10593;48.398;10.698;2022-12-18T10:28:39;-1.10;55.90
20866;DHT22;10593;48.398;10.698;2022-12-18T10:31:07;-1.10;55.40
20866;DHT22;10593;48.398;10.698;2022-12-18T10:33:41;-1.10;55.40
20866;DHT22;10593;48.398;10.698;2022-12-18T10:36:07;-1.10;55.40
20866;DHT22;10593;48.398;10.698;2022-12-18T10:38:33;-1.10;55.40
20866;DHT22;10593;48.398;10.698;2022-12-18T10:43:44;-1.10;55.40
20866;DHT22;10593;48.398;10.698;2022-12-18T10:51:36;-1.10;55.50
20866;DHT22;10593;48.398;10.698;2022-12-18T10:54:14;-1.00;55.70
20866;DHT22;10593;48.398;10.698;2022-12-18T10:56:43;-1.00;55.70
20866;DHT22;10593;48.398;10.698;2022-12-18T10:59:11;-1.00;55.60
20866;DHT22;10593;48.398;10.698;2022-12-18T11:01:56;-1.00;55.60
20866;DHT22;10593;48.398;10.698;2022-12-18T11:04:28;-1.00;55.70
20866;DHT22;10593;48.398;10.698;2022-12-18T11:07:03;-1.00;55.70
20866;DHT22;10593;48.398;10.698;2022-12-18T11:09:31;-0.90;55.70
20866;DHT22;10593;48.398;10.698;2022-12-18T11:12:24;-0.90;55.70
20866;DHT22;10593;48.398;10.698;2022-12-18T11:14:51;-0.90;55.70
20866;DHT22;10593;48.398;10.698;2022-12-18T11:17:28;-0.90;55.60
20866;DHT22;10593;48.398;10.698;2022-12-18T11:20:00;-0.90;55.60
20866;DHT22;10593;48.398;10.698;2022-12-18T11:22:28;-0.90;55.60
20866;DHT22;10593;48.398;10.698;2022-12-18T11:27:26;-0.80;55.70
20866;DHT22;10593;48.398;10.698;2022-12-18T11:30:08;-0.80;55.60
20866;DHT22;10593;48.398;10.698;2022-12-18T11:32:46;-0.80;55.70
20866;DHT22;10593;48.398;10.698;2022-12-18T11:35:49;-0.80;55.70
20866;DHT22;10593;48.398;10.698;2022-12-18T11:38:29;-0.70;55.80
20866;DHT22;10593;48.398;10.698;2022-12-18T11:41:20;-0.70;55.70
20866;DHT22;10593;48.398;10.698;2022-12-18T11:43:57;-0.70;55.70
20866;DHT22;10593;48.398;10.698;2022-12-18T11:46:32;-0.70;55.70
20866;DHT22;10593;48.398;10.698;2022-12-18T11:49:11;-0.70;55.70
20866;DHT22;10593;48.398;10.698;2022-12-18T11:54:47;-0.60;55.80
20866;DHT22;10593;48.398;10.698;2022-12-18T12:00:18;-0.60;55.80
20866;DHT22;10593;48.398;10.698;2022-12-18T12:05:57;-0.50;55.90
20866;DHT22;10593;48.398;10.698;2022-12-18T12:35:13;-0.40;55.70
20866;DHT22;10593;48.398;10.698;2022-12-18T12:40:54;-0.50;55.50
20866;DHT22;10593;48.398;10.698;2022-12-18T12:43:41;-0.40;55.50
20866;DHT22;10593;48.398;10.698;2022-12-18T12:46:12;-0.40;55.50
20866;DHT22;10593;48.398;10.698;2022-12-18T12:48:53;-0.40;55.40
20866;DHT22;10593;48.398;10.698;2022-12-18T12:51:31;-0.40;55.40
20866;DHT22;10593;48.398;10.698;2022-12-18T12:54:01;-0.40;55.40
20866;DHT22;10593;48.398;10.698;2022-12-18T12:56:42;-0.50;55.40
20866;DHT22;10593;48.398;10.698;2022-12-18T12:59:19;-0.40;55.30
20866;DHT22;10593;48.398;10.698;2022-12-18T13:05:31;-0.50;55.20
20866;DHT22;10593;48.398;10.698;2022-12-18T13:08:21;-0.40;55.30
20866;DHT22;10593;48.398;10.698;2022-12-18T13:10:51;-0.40;55.30
20866;DHT22;10593;48.398;10.698;2022-12-18T13:13:55;-0.50;55.20
20866;DHT22;10593;48.398;10.698;2022-12-18T13:16:23;-0.50;55.30
20866;DHT22;10593;48.398;10.698;2022-12-18T13:18:51;-0.50;55.30
20866;DHT22;10593;48.398;10.698;2022-12-18T13:23:56;-0.40;55.40
20866;DHT22;10593;48.398;10.698;2022-12-18T13:26:34;-0.40;55.40
20866;DHT22;10593;48.398;10.698;2022-12-18T13:29:00;-0.40;55.40
20866;DHT22;10593;48.398;10.698;2022-12-18T13:34:16;-0.40;55.50
20866;DHT22;10593;48.398;10.698;2022-12-18T13:36:44;-0.40;55.40
20866;DHT22;10593;48.398;10.698;2022-12-18T13:41:44;-0.40;55.40
20866;DHT22;10593;48.398;10.698;2022-12-18T13:44:31;-0.40;56.00
20866;DHT22;10593;48.398;10.698;2022-12-18T13:47:03;-0.30;55.70
20866;DHT22;10593;48.398;10.698;2022-12-18T13:49:41;-0.30;55.60
20866;DHT22;10593;48.398;10.698;2022-12-18T13:52:22;-0.30;55.50
20866;DHT22;10593;48.398;10.698;2022-12-18T13:54:55;-0.30;55.50
20866;DHT22;10593;48.398;10.698;2022-12-18T13:57:32;-0.30;55.30
20866;DHT22;10593;48.398;10.698;2022-12-18T14:00:14;-0.30;55.30
20866;DHT22;10593;48.398;10.698;2022-12-18T14:02:45;-0.30;55.30
20866;DHT22;10593;48.398;10.698;2022-12-18T14:05:40;-0.30;55.30
20866;DHT22;10593;48.398;10.698;2022-12-18T14:08:13;-0.30;55.30
20866;DHT22;10593;48.398;10.698;2022-12-18T14:10:48;-0.30;55.30
20866;DHT22;10593;48.398;10.698;2022-12-18T14:13:29;-0.30;55.30
20866;DHT22;10593;48.398;10.698;2022-12-18T14:15:57;-0.30;55.30
20866;DHT22;10593;48.398;10.698;2022-12-18T14:21:01;-0.30;55.30
20866;DHT22;10593;48.398;10.698;2022-12-18T14:26:25;-0.30;55.70
20866;DHT22;10593;48.398;10.698;2022-12-18T14:28:55;-0.30;55.10
20866;DHT22;10593;48.398;10.698;2022-12-18T14:31:26;-0.30;55.10
20866;DHT22;10593;48.398;10.698;2022-12-18T14:33:54;-0.30;55.10
20866;DHT22;10593;48.398;10.698;2022-12-18T14:36:23;-0.30;55.10
20866;DHT22;10593;48.398;10.698;2022-12-18T14:38:56;-0.30;55.10
20866;DHT22;10593;48.398;10.698;2022-12-18T14:41:24;-0.30;55.10
20866;DHT22;10593;48.398;10.698;2022-12-18T14:43:52;-0.30;55.10
20866;DHT22;10593;48.398;10.698;2022-12-18T14:49:21;-0.30;55.00
20866;DHT22;10593;48.398;10.698;2022-12-18T14:51:56;-0.30;55.00
20866;DHT22;10593;48.398;10.698;2022-12-18T14:54:25;-0.30;55.00
20866;DHT22;10593;48.398;10.698;2022-12-18T14:57:25;-0.30;55.40
20866;DHT22;10593;48.398;10.698;2022-12-18T15:00:07;-0.40;54.70
20866;DHT22;10593;48.398;10.698;2022-12-18T15:02:40;-0.40;54.70
20866;DHT22;10593;48.398;10.698;2022-12-18T15:07:55;-0.40;54.70
20866;DHT22;10593;48.398;10.698;2022-12-18T15:10:28;-0.40;54.70
20866;DHT22;10593;48.398;10.698;2022-12-18T15:18:14;-0.50;54.80
20866;DHT22;10593;48.398;10.698;2022-12-18T15:23:22;-0.50;54.70
20866;DHT22;10593;48.398;10.698;2022-12-18T15:26:06;-0.50;54.70
20866;DHT22;10593;48.398;10.698;2022-12-18T15:28:36;-0.50;54.80
20866;DHT22;10593;48.398;10.698;2022-12-18T15:36:21;-0.50;54.90
20866;DHT22;10593;48.398;10.698;2022-12-18T15:38:49;-0.50;54.90
20866;DHT22;10593;48.398;10.698;2022-12-18T15:41:17;-0.60;54.80
20866;DHT22;10593;48.398;10.698;2022-12-18T15:43:46;-0.50;54.90
20866;DHT22;10593;48.398;10.698;2022-12-18T15:46:22;-0.60;54.90
20866;DHT22;10593;48.398;10.698;2022-12-18T15:48:51;-0.50;55.00
20866;DHT22;10593;48.398;10.698;2022-12-18T15:51:26;-0.60;54.90
20866;DHT22;10593;48.398;10.698;2022-12-18T15:53:58;-0.50;55.10
20866;DHT22;10593;48.398;10.698;2022-12-18T15:56:27;-0.50;55.10
20866;DHT22;10593;48.398;10.698;2022-12-18T15:59:13;-0.60;55.00
20866;DHT22;10593;48.398;10.698;2022-12-18T16:01:42;-0.50;55.10
20866;DHT22;10593;48.398;10.698;2022-12-18T16:04:14;-0.50;55.10
20866;DHT22;10593;48.398;10.698;2022-12-18T16:06:41;-0.50;55.10
20866;DHT22;10593;48.398;10.698;2022-12-18T16:09:08;-0.50;55.10
20866;DHT22;10593;48.398;10.698;2022-12-18T16:11:36;-0.50;55.20
20866;DHT22;10593;48.398;10.698;2022-12-18T16:14:23;-0.50;55.20
20866;DHT22;10593;48.398;10.698;2022-12-18T16:16:58;-0.50;55.20
20866;DHT22;10593;48.398;10.698;2022-12-18T16:19:26;-0.40;55.20
20866;DHT22;10593;48.398;10.698;2022-12-18T16:21:55;-0.40;55.20
20866;DHT22;10593;48.398;10.698;2022-12-18T16:24:25;-0.40;55.20
20866;DHT22;10593;48.398;10.698;2022-12-18T16:26:56;-0.40;55.10
20866;DHT22;10593;48.398;10.698;2022-12-18T16:29:25;-0.40;55.10
20866;DHT22;10593;48.398;10.698;2022-12-18T16:31:59;-0.40;55.10
20866;DHT22;10593;48.398;10.698;2022-12-18T16:34:30;-0.40;55.00
20866;DHT22;10593;48.398;10.698;2022-12-18T16:37:05;-0.40;55.00
20866;DHT22;10593;48.398;10.698;2022-12-18T16:39:33;-0.40;55.00
20866;DHT22;10593;48.398;10.698;2022-12-18T16:42:04;-0.40;55.00
20866;DHT22;10593;48.398;10.698;2022-12-18T16:44:33;-0.40;54.90
20866;DHT22;10593;48.398;10.698;2022-12-18T16:47:02;-0.40;54.90
20866;DHT22;10593;48.398;10.698;2022-12-18T16:49:30;-0.40;54.90
20866;DHT22;10593;48.398;10.698;2022-12-18T16:51:56;-0.40;54.90
20866;DHT22;10593;48.398;10.698;2022-12-18T16:54:22;-0.40;54.90
20866;DHT22;10593;48.398;10.698;2022-12-18T16:56:50;-0.40;55.40
20866;DHT22;10593;48.398;10.698;2022-12-18T16:59:16;-0.40;54.90
20866;DHT22;10593;48.398;10.698;2022-12-18T17:01:42;-0.40;54.90
20866;DHT22;10593;48.398;10.698;2022-12-18T17:04:08;-0.40;54.90
20866;DHT22;10593;48.398;10.698;2022-12-18T17:06:38;-0.40;54.80
20866;DHT22;10593;48.398;10.698;2022-12-18T17:09:08;-0.40;54.80
20866;DHT22;10593;48.398;10.698;2022-12-18T17:11:36;-0.40;54.80
20866;DHT22;10593;48.398;10.698;2022-12-18T17:14:06;-0.40;54.80
20866;DHT22;10593;48.398;10.698;2022-12-18T17:16:38;-0.40;54.80
20866;DHT22;10593;48.398;10.698;2022-12-18T17:19:04;-0.40;54.80
20866;DHT22;10593;48.398;10.698;2022-12-18T17:21:30;-0.40;54.70
20866;DHT22;10593;48.398;10.698;2022-12-18T17:23:59;-0.40;54.70
20866;DHT22;10593;48.398;10.698;2022-12-18T17:26:26;-0.40;54.70
20866;DHT22;10593;48.398;10.698;2022-12-18T17:28:52;-0.40;54.80
20866;DHT22;10593;48.398;10.698;2022-12-18T17:31:19;-0.50;54.80
20866;DHT22;10593;48.398;10.698;2022-12-18T17:33:47;-0.50;54.60
20866;DHT22;10593;48.398;10.698;2022-12-18T17:36:13;-0.40;54.90
20866;DHT22;10593;48.398;10.698;2022-12-18T17:38:40;-0.40;54.80
20866;DHT22;10593;48.398;10.698;2022-12-18T17:41:07;-0.40;54.80
20866;DHT22;10593;48.398;10.698;2022-12-18T17:43:36;-0.40;54.80